Time;durP1;ratioP1;P1;durP2;ratioP2;P2;SDS_P1;SDS_P2;PMS_P1;PMS_P2;Temp;Humidity;BMP_temperature;BMP_pressure;BME280_temperature;BME280_humidity;BME280_pressure;Samples;Min_cycle;Max_cycle;Signal;HPM_P1;HPM_P2
2024/01/25 00:00:26;;;;;;;19.57;4.60;;;;;;;;;;4973030;28;20180;-76
2024/01/25 00:02:51;;;;;;;16.27;4.17;;;;;;;;;;4974523;28;20207;-75
2024/01/25 00:05:16;;;;;;;10.13;3.63;;;;;;;;;;4995525;28;20187;-75
2024/01/25 00:07:45;;;;;;;18.67;5.70;;;;;;;;;;4976313;28;20176;-76
2024/01/25 00:10:10;;;;;;;21.97;5.67;;;;;;;;;;4988967;28;20278;-75
2024/01/25 00:12:36;;;;;;;19.00;5.20;;;;;;;;;;4974108;28;20180;-75
2024/01/25 00:15:01;;;;;;;19.53;4.63;;;;;;;;;;4989788;28;20180;-75
2024/01/25 00:17:26;;;;;;;15.93;4.53;;;;;;;;;;4989880;28;20212;-75
2024/01/25 00:19:51;;;;;;;17.43;5.57;;;;;;;;;;4977965;28;20195;-75
2024/01/25 00:22:17;;;;;;;17.60;5.33;;;;;;;;;;4989795;28;20180;-75
2024/01/25 00:24:42;;;;;;;18.60;5.07;;;;;;;;;;4990359;28;20201;-75
2024/01/25 00:27:07;;;;;;;20.30;6.20;;;;;;;;;;4997060;28;20193;-75
2024/01/25 00:29:33;;;;;;;26.70;6.37;;;;;;;;;;4994210;28;20175;-75
2024/01/25 00:31:59;;;;;;;20.03;5.13;;;;;;;;;;4992740;28;20188;-76
2024/01/25 00:34:24;;;;;;;15.03;5.23;;;;;;;;;;4991223;28;20179;-76
2024/01/25 00:36:50;;;;;;;20.40;5.93;;;;;;;;;;4990430;28;20259;-75
2024/01/25 00:39:15;;;;;;;22.40;5.50;;;;;;;;;;4992787;28;20178;-75
2024/01/25 00:41:42;;;;;;;20.63;5.07;;;;;;;;;;4991327;28;20184;-75
2024/01/25 00:44:07;;;;;;;16.27;5.07;;;;;;;;;;4968306;28;20177;-75
2024/01/25 00:46:33;;;;;;;20.07;4.33;;;;;;;;;;4978421;28;20211;-75
2024/01/25 00:48:58;;;;;;;16.93;4.93;;;;;;;;;;4992686;28;20348;-75
2024/01/25 00:51:23;;;;;;;19.03;3.93;;;;;;;;;;4994232;28;20182;-75
2024/01/25 00:53:49;;;;;;;16.77;4.37;;;;;;;;;;4977326;28;20210;-76
2024/01/25 00:56:14;;;;;;;14.43;4.30;;;;;;;;;;4997973;28;20184;-76
2024/01/25 00:58:40;;;;;;;21.57;5.23;;;;;;;;;;4993826;28;20180;-76
2024/01/25 01:01:05;;;;;;;15.43;4.27;;;;;;;;;;4993993;28;20190;-75
2024/01/25 01:03:31;;;;;;;15.37;4.67;;;;;;;;;;4993958;28;20197;-75
2024/01/25 01:05:57;;;;;;;14.97;6.07;;;;;;;;;;4985503;28;20294;-76
2024/01/25 01:08:23;;;;;;;13.47;3.73;;;;;;;;;;4970860;28;20189;-75
2024/01/25 01:10:48;;;;;;;14.37;4.40;;;;;;;;;;4992110;28;20227;-75
2024/01/25 01:13:13;;;;;;;16.90;4.63;;;;;;;;;;4999992;28;20184;-75
2024/01/25 01:15:38;;;;;;;12.70;4.80;;;;;;;;;;4993454;28;20184;-75
2024/01/25 01:18:05;;;;;;;11.53;4.00;;;;;;;;;;4980126;28;20180;-76
2024/01/25 01:20:30;;;;;;;15.10;4.83;;;;;;;;;;4985932;28;20174;-75
2024/01/25 01:22:55;;;;;;;14.63;3.87;;;;;;;;;;5001643;28;20452;-75
2024/01/25 01:25:21;;;;;;;19.47;5.93;;;;;;;;;;4995183;28;20203;-76
2024/01/25 01:27:46;;;;;;;11.87;4.30;;;;;;;;;;4980708;28;20241;-75
2024/01/25 01:30:11;;;;;;;12.27;4.40;;;;;;;;;;4993802;28;20265;-76
2024/01/25 01:32:36;;;;;;;13.93;4.73;;;;;;;;;;4975849;28;20202;-76
2024/01/25 01:35:02;;;;;;;13.53;5.03;;;;;;;;;;4993686;28;20171;-76
2024/01/25 01:37:27;;;;;;;15.90;4.00;;;;;;;;;;4978731;28;20191;-75
2024/01/25 01:39:55;;;;;;;14.97;4.17;;;;;;;;;;4977165;28;20195;-75
2024/01/25 01:42:20;;;;;;;12.73;4.20;;;;;;;;;;4993404;28;20204;-75
2024/01/25 01:44:45;;;;;;;12.73;4.37;;;;;;;;;;4979549;28;20231;-76
2024/01/25 01:47:11;;;;;;;21.20;4.93;;;;;;;;;;4976403;28;20226;-76
2024/01/25 01:49:36;;;;;;;11.47;4.07;;;;;;;;;;4976536;28;20188;-76
2024/01/25 01:52:02;;;;;;;17.63;4.50;;;;;;;;;;4975733;28;20313;-75
2024/01/25 01:54:27;;;;;;;19.00;4.30;;;;;;;;;;4978662;28;20258;-76
2024/01/25 01:56:52;;;;;;;13.97;4.03;;;;;;;;;;4977645;28;20192;-75
2024/01/25 01:59:18;;;;;;;8.67;3.33;;;;;;;;;;4980064;28;20182;-76
2024/01/25 02:01:43;;;;;;;18.90;4.30;;;;;;;;;;4975949;28;20190;-76
2024/01/25 02:04:08;;;;;;;11.13;3.60;;;;;;;;;;4999694;28;20174;-75
2024/01/25 02:06:33;;;;;;;16.23;5.33;;;;;;;;;;4977551;28;20243;-75
2024/01/25 02:08:59;;;;;;;14.03;3.60;;;;;;;;;;4992955;28;20216;-75
2024/01/25 02:11:24;;;;;;;13.23;4.00;;;;;;;;;;4976907;28;20183;-75
2024/01/25 02:13:49;;;;;;;10.63;3.40;;;;;;;;;;4994613;28;20186;-75
2024/01/25 02:16:15;;;;;;;18.70;4.50;;;;;;;;;;4976254;28;20233;-76
2024/01/25 02:18:41;;;;;;;8.20;3.23;;;;;;;;;;4975088;28;20182;-75
2024/01/25 02:21:06;;;;;;;15.33;4.13;;;;;;;;;;4992266;28;20211;-76
2024/01/25 02:23:31;;;;;;;14.40;4.27;;;;;;;;;;4976803;28;20181;-75
2024/01/25 02:25:56;;;;;;;19.87;5.27;;;;;;;;;;4976004;28;20224;-75
2024/01/25 02:28:21;;;;;;;11.00;3.77;;;;;;;;;;4975016;28;20172;-75
2024/01/25 02:30:47;;;;;;;11.90;4.40;;;;;;;;;;4977861;28;20235;-75
2024/01/25 02:33:12;;;;;;;17.93;5.43;;;;;;;;;;4992461;28;20243;-75
2024/01/25 02:35:38;;;;;;;16.67;4.70;;;;;;;;;;5004443;28;20190;-75
2024/01/25 02:38:03;;;;;;;16.10;5.03;;;;;;;;;;4993671;28;20272;-75
2024/01/25 02:40:28;;;;;;;19.40;4.70;;;;;;;;;;4992405;28;20187;-75
2024/01/25 02:42:53;;;;;;;14.13;4.57;;;;;;;;;;4991904;28;20327;-75
2024/01/25 02:45:19;;;;;;;17.27;4.43;;;;;;;;;;4996917;28;20301;-75
2024/01/25 02:47:44;;;;;;;15.17;4.10;;;;;;;;;;4976508;28;20176;-75
2024/01/25 02:50:09;;;;;;;13.40;4.00;;;;;;;;;;4989699;28;20190;-75
2024/01/25 02:52:34;;;;;;;10.30;3.57;;;;;;;;;;4990616;28;20183;-75
2024/01/25 02:55:00;;;;;;;9.50;3.50;;;;;;;;;;4992923;28;20191;-75
2024/01/25 02:57:25;;;;;;;10.57;3.03;;;;;;;;;;4978557;28;20186;-75
2024/01/25 02:59:50;;;;;;;14.50;3.73;;;;;;;;;;4992518;28;20195;-75
2024/01/25 03:02:18;;;;;;;10.77;3.50;;;;;;;;;;4976695;28;20276;-75
2024/01/25 03:04:43;;;;;;;11.40;3.23;;;;;;;;;;4995507;28;20179;-75
2024/01/25 03:07:08;;;;;;;14.60;3.87;;;;;;;;;;4975485;28;20188;-76
2024/01/25 03:09:34;;;;;;;18.50;4.43;;;;;;;;;;4991554;28;20287;-76
2024/01/25 03:11:59;;;;;;;10.93;3.43;;;;;;;;;;4997025;28;20183;-75
2024/01/25 03:14:24;;;;;;;10.27;3.57;;;;;;;;;;4992688;28;20187;-75
2024/01/25 03:16:49;;;;;;;16.47;4.00;;;;;;;;;;4974459;28;20216;-75
2024/01/25 03:19:14;;;;;;;13.47;3.60;;;;;;;;;;4996844;28;20175;-75
2024/01/25 03:21:40;;;;;;;12.03;3.77;;;;;;;;;;4991316;28;20246;-75
2024/01/25 03:24:05;;;;;;;13.20;3.97;;;;;;;;;;4976315;28;20178;-76
2024/01/25 03:26:32;;;;;;;14.40;4.33;;;;;;;;;;4982247;28;20298;-75
2024/01/25 03:28:58;;;;;;;15.03;5.03;;;;;;;;;;4989569;28;20180;-75
2024/01/25 03:31:23;;;;;;;12.13;3.13;;;;;;;;;;4990571;28;20183;-75
2024/01/25 03:33:48;;;;;;;13.80;3.20;;;;;;;;;;4990231;28;20184;-75
2024/01/25 03:36:15;;;;;;;9.67;2.90;;;;;;;;;;4976651;28;20282;-75
2024/01/25 03:38:40;;;;;;;11.63;3.40;;;;;;;;;;4974024;28;20215;-75
2024/01/25 03:41:05;;;;;;;15.57;3.27;;;;;;;;;;4995101;28;20231;-75
2024/01/25 03:43:30;;;;;;;16.07;3.90;;;;;;;;;;4973867;28;20195;-75
2024/01/25 03:45:56;;;;;;;19.70;4.53;;;;;;;;;;4973535;28;20208;-75
2024/01/25 03:48:21;;;;;;;10.33;3.47;;;;;;;;;;4973843;28;20177;-75
2024/01/25 03:50:47;;;;;;;15.27;3.67;;;;;;;;;;4989875;28;20594;-75
2024/01/25 03:53:12;;;;;;;11.57;3.80;;;;;;;;;;4993212;28;20202;-75
2024/01/25 03:55:37;;;;;;;17.50;4.70;;;;;;;;;;4979531;28;20189;-75
2024/01/25 03:58:03;;;;;;;12.83;4.20;;;;;;;;;;4993417;28;20188;-75
2024/01/25 04:00:28;;;;;;;12.17;4.30;;;;;;;;;;4996165;28;20188;-75
2024/01/25 04:02:53;;;;;;;15.30;3.93;;;;;;;;;;4973706;28;20206;-75
2024/01/25 04:05:18;;;;;;;12.77;3.70;;;;;;;;;;4977387;28;20208;-75
2024/01/25 04:07:43;;;;;;;18.63;4.70;;;;;;;;;;4973764;28;20206;-75
2024/01/25 04:10:09;;;;;;;13.30;4.30;;;;;;;;;;4990763;28;20272;-75
2024/01/25 04:12:34;;;;;;;15.10;3.63;;;;;;;;;;4977256;28;20184;-75
2024/01/25 04:14:59;;;;;;;16.20;4.60;;;;;;;;;;4992370;28;20227;-75
2024/01/25 04:17:25;;;;;;;20.80;4.83;;;;;;;;;;4974623;28;20215;-75
2024/01/25 04:19:50;;;;;;;15.10;4.00;;;;;;;;;;4981065;28;20184;-75
2024/01/25 04:22:15;;;;;;;18.83;4.33;;;;;;;;;;4998044;28;20176;-75
2024/01/25 04:24:41;;;;;;;9.83;3.43;;;;;;;;;;4981024;28;20193;-75
2024/01/25 04:27:06;;;;;;;10.23;2.90;;;;;;;;;;4993714;28;20182;-75
2024/01/25 04:29:31;;;;;;;16.60;4.27;;;;;;;;;;4995340;28;20186;-75
2024/01/25 04:31:56;;;;;;;13.77;3.90;;;;;;;;;;4977134;28;20240;-75
2024/01/25 04:34:22;;;;;;;13.03;4.13;;;;;;;;;;4996432;28;20175;-75
2024/01/25 04:36:47;;;;;;;10.03;2.90;;;;;;;;;;4978443;28;20188;-75
2024/01/25 04:39:12;;;;;;;10.00;2.83;;;;;;;;;;4993127;28;20185;-75
2024/01/25 04:41:37;;;;;;;13.20;3.53;;;;;;;;;;4978208;28;20351;-75
2024/01/25 04:44:03;;;;;;;17.90;4.13;;;;;;;;;;4978337;28;20183;-75
2024/01/25 04:46:29;;;;;;;18.90;4.80;;;;;;;;;;4994006;28;20199;-75
2024/01/25 04:48:54;;;;;;;13.77;5.40;;;;;;;;;;4994761;28;20184;-75
2024/01/25 04:51:20;;;;;;;18.53;4.30;;;;;;;;;;4993615;28;20707;-76
2024/01/25 04:53:48;;;;;;;10.87;4.57;;;;;;;;;;4974941;28;20184;-75
2024/01/25 04:56:13;;;;;;;20.80;6.17;;;;;;;;;;4977110;28;20216;-75
2024/01/25 04:58:39;;;;;;;11.70;2.80;;;;;;;;;;4975447;28;20191;-75
2024/01/25 05:01:06;;;;;;;16.70;3.93;;;;;;;;;;5002510;28;20180;-75
2024/01/25 05:03:32;;;;;;;14.67;4.50;;;;;;;;;;4993839;28;20171;-75
2024/01/25 05:05:57;;;;;;;9.47;3.60;;;;;;;;;;4997751;28;20212;-75
2024/01/25 05:08:22;;;;;;;16.63;4.83;;;;;;;;;;4994191;28;20252;-75
2024/01/25 05:10:47;;;;;;;19.30;5.10;;;;;;;;;;4997656;28;20212;-75
2024/01/25 05:13:12;;;;;;;17.93;4.70;;;;;;;;;;4982574;28;20190;-76
2024/01/25 05:15:38;;;;;;;6.97;2.63;;;;;;;;;;4976694;28;20188;-75
2024/01/25 05:18:03;;;;;;;14.50;3.80;;;;;;;;;;4976016;28;20191;-75
2024/01/25 05:20:32;;;;;;;20.87;4.67;;;;;;;;;;4980051;28;20296;-75
2024/01/25 05:22:57;;;;;;;9.60;3.53;;;;;;;;;;4978627;28;20191;-75
2024/01/25 05:25:23;;;;;;;14.93;3.77;;;;;;;;;;4993535;28;20214;-75
2024/01/25 05:27:48;;;;;;;4.90;1.93;;;;;;;;;;4993239;28;20179;-75
2024/01/25 05:30:13;;;;;;;13.30;3.50;;;;;;;;;;4978826;28;20176;-75
2024/01/25 05:32:38;;;;;;;9.83;2.83;;;;;;;;;;4994396;28;20179;-75
2024/01/25 05:35:04;;;;;;;16.43;4.37;;;;;;;;;;4976920;28;20180;-75
2024/01/25 05:37:30;;;;;;;17.37;4.30;;;;;;;;;;4994633;28;20185;-75
2024/01/25 05:39:55;;;;;;;12.20;3.43;;;;;;;;;;4974128;28;20259;-75
2024/01/25 05:42:20;;;;;;;20.57;4.47;;;;;;;;;;4979651;28;20178;-75
2024/01/25 05:44:46;;;;;;;12.33;3.47;;;;;;;;;;4975600;28;20215;-75
2024/01/25 05:47:11;;;;;;;10.50;4.13;;;;;;;;;;4974818;28;20176;-75
2024/01/25 05:49:36;;;;;;;13.93;5.03;;;;;;;;;;4977126;28;20172;-75
2024/01/25 05:52:01;;;;;;;11.37;3.70;;;;;;;;;;4993229;28;20171;-75
2024/01/25 05:54:26;;;;;;;14.73;3.67;;;;;;;;;;4977449;28;20176;-75
2024/01/25 05:56:52;;;;;;;9.87;4.40;;;;;;;;;;4995480;28;20186;-75
2024/01/25 05:59:17;;;;;;;11.60;3.70;;;;;;;;;;4980787;28;20181;-75
2024/01/25 06:01:42;;;;;;;12.17;4.13;;;;;;;;;;4994229;28;20183;-76
2024/01/25 06:04:07;;;;;;;17.37;6.47;;;;;;;;;;4994044;28;20253;-75
2024/01/25 06:06:32;;;;;;;13.37;4.70;;;;;;;;;;4994451;28;20207;-76
2024/01/25 06:08:58;;;;;;;11.93;4.90;;;;;;;;;;4990885;28;20235;-76
2024/01/25 06:11:23;;;;;;;13.80;4.43;;;;;;;;;;4977721;28;20179;-76
2024/01/25 06:13:48;;;;;;;11.90;4.10;;;;;;;;;;4992226;28;20220;-76
2024/01/25 06:16:13;;;;;;;13.50;4.47;;;;;;;;;;4991791;28;20215;-75
2024/01/25 06:18:39;;;;;;;11.60;3.50;;;;;;;;;;4991648;28;20197;-75
2024/01/25 06:21:04;;;;;;;11.47;4.10;;;;;;;;;;4990698;28;20187;-75
2024/01/25 06:23:29;;;;;;;11.83;3.57;;;;;;;;;;4992161;28;20203;-76
2024/01/25 06:25:55;;;;;;;16.77;5.07;;;;;;;;;;4994100;28;20276;-75
2024/01/25 06:28:20;;;;;;;11.20;3.80;;;;;;;;;;4976175;28;20179;-75
2024/01/25 06:30:45;;;;;;;13.17;4.10;;;;;;;;;;4976487;28;20206;-76
2024/01/25 06:33:10;;;;;;;14.13;4.73;;;;;;;;;;4988471;28;20201;-76
2024/01/25 06:35:35;;;;;;;15.43;4.80;;;;;;;;;;4974484;28;20197;-75
2024/01/25 06:38:01;;;;;;;15.83;4.57;;;;;;;;;;4992043;28;20219;-75
2024/01/25 06:40:26;;;;;;;18.83;4.30;;;;;;;;;;4991789;28;20192;-75
2024/01/25 06:42:51;;;;;;;19.30;5.27;;;;;;;;;;4973230;28;20189;-75
2024/01/25 06:45:17;;;;;;;11.63;4.77;;;;;;;;;;4993590;28;20286;-75
2024/01/25 06:47:42;;;;;;;20.33;4.07;;;;;;;;;;4990770;28;20180;-76
2024/01/25 06:50:08;;;;;;;19.50;4.23;;;;;;;;;;4973552;28;20493;-75
2024/01/25 06:52:33;;;;;;;11.90;3.37;;;;;;;;;;4972889;28;20178;-76
2024/01/25 06:54:58;;;;;;;15.40;4.23;;;;;;;;;;4975133;28;20215;-75
2024/01/25 06:57:24;;;;;;;17.60;4.93;;;;;;;;;;4993372;28;20181;-75
2024/01/25 06:59:49;;;;;;;19.37;5.43;;;;;;;;;;4975180;28;20191;-75
2024/01/25 07:02:14;;;;;;;18.07;6.20;;;;;;;;;;4973001;28;20179;-75
2024/01/25 07:04:40;;;;;;;19.57;4.30;;;;;;;;;;4995262;28;20201;-76
2024/01/25 07:07:06;;;;;;;10.60;4.03;;;;;;;;;;4989873;28;20186;-76
2024/01/25 07:09:31;;;;;;;13.83;4.07;;;;;;;;;;4984148;28;20293;-76
2024/01/25 07:11:56;;;;;;;9.90;3.67;;;;;;;;;;4972651;28;20176;-75
2024/01/25 07:14:21;;;;;;;10.13;3.87;;;;;;;;;;4977793;28;20187;-75
2024/01/25 07:16:46;;;;;;;12.83;4.00;;;;;;;;;;4972337;28;20187;-75
2024/01/25 07:19:12;;;;;;;18.30;7.77;;;;;;;;;;4955344;28;20195;-75
2024/01/25 07:21:40;;;;;;;21.70;7.37;;;;;;;;;;4971722;28;20181;-76
2024/01/25 07:24:05;;;;;;;13.43;7.27;;;;;;;;;;4969714;28;20186;-76
2024/01/25 07:26:31;;;;;;;15.83;5.77;;;;;;;;;;4971516;28;20199;-76
2024/01/25 07:28:58;;;;;;;17.67;5.83;;;;;;;;;;4971935;28;20260;-75
2024/01/25 07:31:26;;;;;;;14.73;5.73;;;;;;;;;;4955977;28;20178;-75
2024/01/25 07:33:52;;;;;;;14.67;4.77;;;;;;;;;;4986854;28;20236;-75
2024/01/25 07:36:18;;;;;;;13.17;5.40;;;;;;;;;;4955474;28;20455;-75
2024/01/25 07:38:43;;;;;;;18.13;5.83;;;;;;;;;;4956030;28;20199;-76
2024/01/25 07:41:08;;;;;;;17.73;4.40;;;;;;;;;;4971688;28;20253;-75
2024/01/25 07:43:34;;;;;;;11.87;3.80;;;;;;;;;;4955941;28;20207;-75
2024/01/25 07:45:59;;;;;;;11.50;3.83;;;;;;;;;;4971572;28;20501;-75
2024/01/25 07:48:24;;;;;;;16.23;4.20;;;;;;;;;;4972325;28;20169;-76
2024/01/25 07:50:49;;;;;;;13.83;4.77;;;;;;;;;;4954623;28;20191;-76
2024/01/25 07:53:16;;;;;;;10.93;3.53;;;;;;;;;;4972373;28;20171;-75
2024/01/25 07:55:41;;;;;;;12.23;4.43;;;;;;;;;;4961206;28;20270;-75
2024/01/25 07:58:06;;;;;;;15.50;4.17;;;;;;;;;;4982455;28;20274;-75
2024/01/25 08:00:31;;;;;;;8.33;3.03;;;;;;;;;;4979923;28;20195;-76
2024/01/25 08:02:56;;;;;;;14.57;4.50;;;;;;;;;;4976828;28;20184;-75
2024/01/25 08:05:22;;;;;;;15.37;4.23;;;;;;;;;;4979757;28;20203;-75
2024/01/25 08:07:48;;;;;;;17.97;5.17;;;;;;;;;;4975270;28;20183;-75
2024/01/25 08:10:13;;;;;;;13.93;4.27;;;;;;;;;;4991504;28;20289;-76
2024/01/25 08:12:39;;;;;;;17.53;4.97;;;;;;;;;;4983531;28;20175;-75
2024/01/25 08:15:05;;;;;;;16.70;3.97;;;;;;;;;;5006303;28;20187;-75
2024/01/25 08:17:31;;;;;;;18.73;4.63;;;;;;;;;;4994165;28;20188;-75
2024/01/25 08:19:56;;;;;;;15.57;4.53;;;;;;;;;;4994503;28;20183;-75
2024/01/25 08:22:21;;;;;;;8.70;3.50;;;;;;;;;;4976700;28;20175;-75
2024/01/25 08:24:46;;;;;;;17.20;5.43;;;;;;;;;;4977297;28;20243;-75
2024/01/25 08:27:12;;;;;;;14.90;4.60;;;;;;;;;;4993739;28;20471;-76
2024/01/25 08:29:37;;;;;;;11.00;4.23;;;;;;;;;;4994844;28;20261;-75
2024/01/25 08:32:03;;;;;;;17.63;5.60;;;;;;;;;;4994017;28;20172;-75
2024/01/25 08:34:28;;;;;;;16.87;4.70;;;;;;;;;;4995033;28;20168;-75
2024/01/25 08:36:53;;;;;;;17.87;4.33;;;;;;;;;;4991975;28;20180;-75
2024/01/25 08:39:18;;;;;;;14.47;7.17;;;;;;;;;;4976908;28;20212;-75
2024/01/25 08:41:45;;;;;;;13.53;4.80;;;;;;;;;;4994421;28;20180;-76
2024/01/25 08:44:10;;;;;;;9.83;4.40;;;;;;;;;;4993281;28;20683;-76
2024/01/25 08:46:35;;;;;;;15.17;4.93;;;;;;;;;;4983424;28;20206;-75
2024/01/25 08:49:01;;;;;;;13.87;4.13;;;;;;;;;;4995251;28;20181;-75
2024/01/25 08:51:26;;;;;;;18.93;4.10;;;;;;;;;;4993434;28;20267;-75
2024/01/25 08:53:51;;;;;;;18.10;5.07;;;;;;;;;;4976359;28;20187;-76
2024/01/25 08:56:17;;;;;;;20.97;5.83;;;;;;;;;;4976665;28;20278;-76
2024/01/25 08:58:42;;;;;;;16.73;5.53;;;;;;;;;;4998213;28;20187;-76
2024/01/25 09:01:07;;;;;;;13.73;3.63;;;;;;;;;;4996146;28;20231;-75
2024/01/25 09:03:33;;;;;;;9.63;3.93;;;;;;;;;;4976609;28;20178;-75
2024/01/25 09:05:58;;;;;;;12.63;4.80;;;;;;;;;;4991835;28;20203;-75
2024/01/25 09:08:23;;;;;;;12.20;4.13;;;;;;;;;;4992687;28;20182;-75
2024/01/25 09:10:48;;;;;;;19.00;4.77;;;;;;;;;;4974456;28;20223;-75
2024/01/25 09:13:13;;;;;;;15.47;3.73;;;;;;;;;;4979391;28;20234;-75
2024/01/25 09:15:39;;;;;;;14.67;4.70;;;;;;;;;;4978715;28;20189;-76
2024/01/25 09:18:04;;;;;;;12.43;4.17;;;;;;;;;;4977920;28;20177;-75
2024/01/25 09:20:30;;;;;;;13.83;4.13;;;;;;;;;;4974159;28;20187;-76
2024/01/25 09:22:55;;;;;;;9.00;3.27;;;;;;;;;;4973546;28;20191;-76
2024/01/25 09:25:20;;;;;;;8.53;3.10;;;;;;;;;;4981712;28;20194;-76
2024/01/25 09:27:45;;;;;;;16.43;4.63;;;;;;;;;;4973721;28;20224;-75
2024/01/25 09:30:11;;;;;;;12.50;4.07;;;;;;;;;;4973741;28;20196;-76
2024/01/25 09:32:36;;;;;;;8.33;3.17;;;;;;;;;;4977188;28;20264;-76
2024/01/25 09:35:01;;;;;;;8.13;3.27;;;;;;;;;;4959548;28;20184;-75
2024/01/25 09:37:26;;;;;;;10.83;3.70;;;;;;;;;;4971547;28;20235;-76
2024/01/25 09:39:52;;;;;;;13.30;4.97;;;;;;;;;;4958221;28;20183;-76
2024/01/25 09:42:18;;;;;;;14.37;4.50;;;;;;;;;;4973815;28;20173;-76
2024/01/25 09:44:43;;;;;;;11.07;3.63;;;;;;;;;;4975224;28;20181;-76
2024/01/25 09:47:08;;;;;;;9.20;3.00;;;;;;;;;;4957196;28;20187;-76
2024/01/25 09:49:34;;;;;;;9.53;3.33;;;;;;;;;;4984953;28;20288;-76
2024/01/25 09:52:03;;;;;;;13.27;4.73;;;;;;;;;;4957829;28;20188;-75
2024/01/25 09:54:29;;;;;;;8.33;3.00;;;;;;;;;;4971140;28;20177;-76
2024/01/25 09:56:55;;;;;;;13.43;3.63;;;;;;;;;;4956275;28;20324;-75
2024/01/25 09:59:21;;;;;;;16.23;5.53;;;;;;;;;;4956123;28;20192;-76
2024/01/25 10:01:48;;;;;;;12.43;3.47;;;;;;;;;;4977399;28;20177;-76
2024/01/25 10:04:13;;;;;;;10.83;3.60;;;;;;;;;;4972865;28;20263;-76
2024/01/25 10:06:38;;;;;;;12.73;5.73;;;;;;;;;;4956509;28;20284;-76
2024/01/25 10:09:04;;;;;;;20.87;8.47;;;;;;;;;;4956575;28;20228;-76
2024/01/25 10:11:35;;;;;;;12.43;5.03;;;;;;;;;;4988915;28;20259;-76
2024/01/25 10:14:01;;;;;;;11.77;3.67;;;;;;;;;;4986399;28;20185;-75
2024/01/25 10:16:26;;;;;;;13.80;4.70;;;;;;;;;;4983108;28;20187;-76
2024/01/25 10:18:52;;;;;;;16.57;5.97;;;;;;;;;;4973914;28;20177;-76
2024/01/25 10:21:17;;;;;;;12.00;3.63;;;;;;;;;;4971442;28;20187;-75
2024/01/25 10:23:48;;;;;;;14.00;3.43;;;;;;;;;;4971575;28;20181;-76
2024/01/25 10:26:14;;;;;;;14.50;4.20;;;;;;;;;;4973236;28;20207;-76
2024/01/25 10:28:39;;;;;;;11.20;3.40;;;;;;;;;;4984629;28;20207;-76
2024/01/25 10:31:06;;;;;;;10.30;2.97;;;;;;;;;;4972749;28;20185;-75
2024/01/25 10:33:31;;;;;;;11.87;3.30;;;;;;;;;;4973384;28;20181;-76
2024/01/25 10:36:02;;;;;;;15.43;3.77;;;;;;;;;;4987793;28;20180;-76
2024/01/25 10:38:31;;;;;;;7.50;2.80;;;;;;;;;;4991967;28;20184;-76
2024/01/25 10:40:58;;;;;;;11.77;4.00;;;;;;;;;;4992506;28;20184;-76
2024/01/25 10:43:23;;;;;;;12.97;4.63;;;;;;;;;;4994661;28;20216;-76
2024/01/25 10:45:53;;;;;;;8.27;3.40;;;;;;;;;;4975208;28;20196;-76
2024/01/25 10:48:19;;;;;;;12.90;3.73;;;;;;;;;;4994585;28;20185;-76
2024/01/25 10:50:45;;;;;;;11.17;3.73;;;;;;;;;;4996745;28;20186;-76
2024/01/25 10:53:10;;;;;;;13.37;3.87;;;;;;;;;;4975516;28;20179;-75
2024/01/25 10:55:36;;;;;;;11.20;3.13;;;;;;;;;;4974595;28;20179;-76
2024/01/25 10:58:01;;;;;;;9.40;3.03;;;;;;;;;;4996323;28;20188;-76
2024/01/25 11:00:26;;;;;;;12.47;3.50;;;;;;;;;;4979051;28;20176;-76
2024/01/25 11:02:51;;;;;;;8.80;2.80;;;;;;;;;;4991846;28;20187;-76
2024/01/25 11:05:17;;;;;;;8.33;2.97;;;;;;;;;;4977338;28;20207;-76
2024/01/25 11:07:49;;;;;;;6.93;3.27;;;;;;;;;;4976242;28;20202;-76
2024/01/25 11:10:16;;;;;;;9.13;2.57;;;;;;;;;;4975957;28;20269;-76
2024/01/25 11:12:51;;;;;;;10.37;3.40;;;;;;;;;;4978505;28;20187;-76
2024/01/25 11:15:24;;;;;;;7.30;2.60;;;;;;;;;;4992790;28;20195;-76
2024/01/25 11:17:55;;;;;;;9.60;2.67;;;;;;;;;;4991511;28;20187;-76
2024/01/25 11:20:24;;;;;;;9.10;2.90;;;;;;;;;;4974161;28;20423;-76
2024/01/25 11:22:57;;;;;;;10.17;2.80;;;;;;;;;;4990496;28;20187;-76
2024/01/25 11:25:23;;;;;;;9.37;2.77;;;;;;;;;;4990966;28;20217;-76
2024/01/25 11:27:50;;;;;;;8.27;3.17;;;;;;;;;;4991925;28;20262;-76
2024/01/25 11:30:17;;;;;;;9.97;3.87;;;;;;;;;;4987959;28;20236;-76
2024/01/25 11:32:42;;;;;;;7.47;2.60;;;;;;;;;;4993561;28;20172;-76
2024/01/25 11:35:08;;;;;;;7.40;3.00;;;;;;;;;;4975857;28;20235;-76
2024/01/25 11:37:33;;;;;;;5.20;1.80;;;;;;;;;;4990110;28;20249;-76
2024/01/25 11:39:58;;;;;;;8.13;2.50;;;;;;;;;;4991716;28;20176;-76
2024/01/25 11:42:24;;;;;;;12.47;2.97;;;;;;;;;;4994725;28;20180;-76
2024/01/25 11:44:49;;;;;;;10.07;2.90;;;;;;;;;;4990345;28;20284;-76
2024/01/25 11:47:14;;;;;;;7.40;3.67;;;;;;;;;;4990179;28;20187;-76
2024/01/25 11:49:39;;;;;;;4.47;2.03;;;;;;;;;;4991537;28;20173;-76
2024/01/25 11:52:05;;;;;;;6.73;2.20;;;;;;;;;;4999062;28;20186;-76
2024/01/25 11:54:30;;;;;;;3.43;1.77;;;;;;;;;;4990231;28;20176;-76
2024/01/25 11:56:56;;;;;;;4.47;2.20;;;;;;;;;;4989933;28;20212;-75
2024/01/25 11:59:21;;;;;;;8.17;1.97;;;;;;;;;;4974114;28;20180;-76
2024/01/25 12:01:46;;;;;;;5.50;2.40;;;;;;;;;;4973359;28;20254;-76
2024/01/25 12:04:11;;;;;;;5.47;1.90;;;;;;;;;;4973864;28;20181;-76
2024/01/25 12:06:37;;;;;;;6.90;1.93;;;;;;;;;;4974024;28;20189;-76
2024/01/25 12:09:08;;;;;;;7.70;2.07;;;;;;;;;;4995814;28;20386;-76
2024/01/25 12:11:34;;;;;;;7.57;2.27;;;;;;;;;;4997584;28;20174;-76
2024/01/25 12:13:59;;;;;;;6.33;2.70;;;;;;;;;;4995314;28;20237;-76
2024/01/25 12:16:24;;;;;;;8.07;2.40;;;;;;;;;;4973592;28;20179;-76
2024/01/25 12:18:49;;;;;;;6.70;2.30;;;;;;;;;;4973036;28;20207;-76
2024/01/25 12:21:14;;;;;;;6.13;2.60;;;;;;;;;;4971897;28;20176;-76
2024/01/25 12:23:40;;;;;;;6.47;3.00;;;;;;;;;;4992591;28;20232;-76
2024/01/25 12:26:10;;;;;;;6.20;2.07;;;;;;;;;;4991241;28;20212;-76
2024/01/25 12:28:35;;;;;;;5.10;2.27;;;;;;;;;;4990563;28;20256;-76
2024/01/25 12:31:05;;;;;;;7.53;2.37;;;;;;;;;;4999808;28;20207;-77
2024/01/25 12:33:30;;;;;;;10.97;2.33;;;;;;;;;;4990359;28;20164;-77
2024/01/25 12:35:55;;;;;;;6.93;2.23;;;;;;;;;;4997944;28;20180;-76
2024/01/25 12:38:21;;;;;;;12.03;3.40;;;;;;;;;;4989352;28;20215;-76
2024/01/25 12:40:48;;;;;;;6.57;2.10;;;;;;;;;;4996755;28;20177;-76
2024/01/25 12:43:14;;;;;;;8.53;2.53;;;;;;;;;;4995216;28;20185;-76
2024/01/25 12:45:39;;;;;;;9.10;1.97;;;;;;;;;;4979619;28;20212;-76
2024/01/25 12:48:06;;;;;;;10.83;2.03;;;;;;;;;;4976206;28;20263;-75
2024/01/25 12:50:31;;;;;;;6.23;1.77;;;;;;;;;;4979375;28;20187;-76
2024/01/25 12:52:57;;;;;;;7.17;1.70;;;;;;;;;;4995675;28;20173;-76
2024/01/25 12:55:22;;;;;;;5.23;2.00;;;;;;;;;;4980847;28;20183;-76
2024/01/25 12:57:47;;;;;;;5.87;2.40;;;;;;;;;;4978313;28;20204;-76
2024/01/25 13:00:13;;;;;;;6.80;2.37;;;;;;;;;;4993833;28;20265;-76
2024/01/25 13:02:38;;;;;;;5.53;2.20;;;;;;;;;;4994310;28;20277;-76
2024/01/25 13:05:03;;;;;;;5.40;1.87;;;;;;;;;;4993664;28;20179;-76
2024/01/25 13:07:28;;;;;;;3.57;1.97;;;;;;;;;;4992236;28;20186;-76
2024/01/25 13:09:54;;;;;;;7.03;1.83;;;;;;;;;;4993231;28;20240;-76
2024/01/25 13:12:19;;;;;;;6.00;2.10;;;;;;;;;;4978764;28;20171;-76
2024/01/25 13:14:44;;;;;;;5.83;2.13;;;;;;;;;;4998179;28;20207;-76
2024/01/25 13:17:09;;;;;;;4.33;1.87;;;;;;;;;;4982898;28;20195;-76
2024/01/25 13:19:34;;;;;;;4.83;1.80;;;;;;;;;;4994739;28;20181;-76
2024/01/25 13:22:00;;;;;;;8.43;2.23;;;;;;;;;;4992953;28;20209;-76
2024/01/25 13:24:25;;;;;;;7.10;1.80;;;;;;;;;;4999543;28;20185;-76
2024/01/25 13:26:50;;;;;;;3.30;1.50;;;;;;;;;;4975928;28;20197;-76
2024/01/25 13:29:16;;;;;;;6.27;3.00;;;;;;;;;;4975881;28;20175;-76
2024/01/25 13:31:41;;;;;;;2.80;1.50;;;;;;;;;;4993839;28;20174;-76
2024/01/25 13:34:06;;;;;;;7.70;1.90;;;;;;;;;;4993239;28;20233;-76
2024/01/25 13:36:31;;;;;;;3.67;1.80;;;;;;;;;;4993179;28;20178;-76
2024/01/25 13:38:57;;;;;;;4.57;2.00;;;;;;;;;;4992894;28;20193;-76
2024/01/25 13:41:22;;;;;;;7.40;2.53;;;;;;;;;;4975650;28;20221;-76
2024/01/25 13:43:47;;;;;;;7.53;2.17;;;;;;;;;;4992638;28;20183;-76
2024/01/25 13:46:12;;;;;;;5.27;2.43;;;;;;;;;;4975339;28;20201;-76
2024/01/25 13:48:38;;;;;;;5.43;1.67;;;;;;;;;;4992951;28;20182;-76
2024/01/25 13:51:03;;;;;;;3.83;2.63;;;;;;;;;;4978741;28;20177;-76
2024/01/25 13:53:28;;;;;;;6.27;1.80;;;;;;;;;;4974843;28;20186;-76
2024/01/25 13:55:53;;;;;;;3.63;2.07;;;;;;;;;;4993268;28;20202;-77
2024/01/25 13:58:18;;;;;;;6.23;2.73;;;;;;;;;;4980534;28;20173;-76
2024/01/25 14:00:44;;;;;;;6.37;3.20;;;;;;;;;;4975647;28;20188;-76
2024/01/25 14:03:09;;;;;;;7.53;2.50;;;;;;;;;;4975009;28;20180;-76
2024/01/25 14:05:34;;;;;;;7.67;1.97;;;;;;;;;;4992430;28;20200;-76
2024/01/25 14:08:00;;;;;;;5.27;2.30;;;;;;;;;;4991639;28;20182;-76
2024/01/25 14:10:27;;;;;;;14.50;3.20;;;;;;;;;;4992244;28;20252;-77
2024/01/25 14:12:52;;;;;;;6.30;2.13;;;;;;;;;;4995631;28;20182;-76
2024/01/25 14:15:18;;;;;;;4.40;1.80;;;;;;;;;;4997574;28;20182;-76
2024/01/25 14:17:43;;;;;;;7.17;2.23;;;;;;;;;;4974852;28;20219;-76
2024/01/25 14:20:08;;;;;;;5.23;2.17;;;;;;;;;;4992328;28;20187;-76
2024/01/25 14:22:33;;;;;;;9.37;2.53;;;;;;;;;;4975123;28;20190;-76